sensor_id;sensor_type;location;lat;lon;timestamp;temperature;humidity
71754;DHT22;59593;51.716;7.016;2023-04-03T00:00:04;2.70;99.90
71754;DHT22;59593;51.716;7.016;2023-04-03T00:02:30;2.70;99.90
71754;DHT22;59593;51.716;7.016;2023-04-03T00:04:55;2.70;99.90
71754;DHT22;59593;51.716;7.016;2023-04-03T00:07:21;2.60;99.90
71754;DHT22;59593;51.716;7.016;2023-04-03T00:09:47;2.70;99.90
71754;DHT22;59593;51.716;7.016;2023-04-03T00:12:12;2.70;99.90
71754;DHT22;59593;51.716;7.016;2023-04-03T00:14:38;2.70;99.90
71754;DHT22;59593;51.716;7.016;2023-04-03T00:17:03;2.80;99.90
71754;DHT22;59593;51.716;7.016;2023-04-03T00:19:29;2.80;99.90
71754;DHT22;59593;51.716;7.016;2023-04-03T00:21:55;2.80;99.90
71754;DHT22;59593;51.716;7.016;2023-04-03T00:24:20;2.90;99.90
71754;DHT22;59593;51.716;7.016;2023-04-03T00:26:46;3.00;99.90
71754;DHT22;59593;51.716;7.016;2023-04-03T00:29:12;3.10;99.90
71754;DHT22;59593;51.716;7.016;2023-04-03T00:31:37;3.10;99.90
71754;DHT22;59593;51.716;7.016;2023-04-03T00:34:03;3.20;99.90
71754;DHT22;59593;51.716;7.016;2023-04-03T00:36:28;3.30;99.90
71754;DHT22;59593;51.716;7.016;2023-04-03T00:38:54;3.40;99.90
71754;DHT22;59593;51.716;7.016;2023-04-03T00:41:20;3.50;99.90
71754;DHT22;59593;51.716;7.016;2023-04-03T00:43:46;3.70;99.90
71754;DHT22;59593;51.716;7.016;2023-04-03T00:46:12;3.70;99.90
71754;DHT22;59593;51.716;7.016;2023-04-03T00:48:43;3.70;99.90
71754;DHT22;59593;51.716;7.016;2023-04-03T00:51:13;3.80;99.90
71754;DHT22;59593;51.716;7.016;2023-04-03T00:54:00;3.90;99.90
71754;DHT22;59593;51.716;7.016;2023-04-03T00:56:27;3.90;99.90
71754;DHT22;59593;51.716;7.016;2023-04-03T00:59:04;3.90;99.90
71754;DHT22;59593;51.716;7.016;2023-04-03T01:01:31;3.90;99.90
71754;DHT22;59593;51.716;7.016;2023-04-03T01:03:59;4.00;99.90
71754;DHT22;59593;51.716;7.016;2023-04-03T01:06:30;4.00;99.90
71754;DHT22;59593;51.716;7.016;2023-04-03T01:08:58;4.10;99.90
71754;DHT22;59593;51.716;7.016;2023-04-03T01:11:24;4.00;99.90
71754;DHT22;59593;51.716;7.016;2023-04-03T01:13:51;3.90;99.90
71754;DHT22;59593;51.716;7.016;2023-04-03T01:16:17;3.90;99.90
71754;DHT22;59593;51.716;7.016;2023-04-03T01:18:43;3.90;99.90
71754;DHT22;59593;51.716;7.016;2023-04-03T01:26:45;3.90;99.90
71754;DHT22;59593;51.716;7.016;2023-04-03T01:32:32;3.80;99.90
71754;DHT22;59593;51.716;7.016;2023-04-03T01:34:58;3.80;99.90
71754;DHT22;59593;51.716;7.016;2023-04-03T01:37:24;3.70;99.90
71754;DHT22;59593;51.716;7.016;2023-04-03T01:39:49;3.70;99.90
71754;DHT22;59593;51.716;7.016;2023-04-03T01:42:15;3.70;99.90
71754;DHT22;59593;51.716;7.016;2023-04-03T01:44:41;3.60;99.90
71754;DHT22;59593;51.716;7.016;2023-04-03T01:47:06;3.60;99.90
71754;DHT22;59593;51.716;7.016;2023-04-03T01:49:32;3.70;99.90
71754;DHT22;59593;51.716;7.016;2023-04-03T01:51:58;3.70;99.90
71754;DHT22;59593;51.716;7.016;2023-04-03T01:54:23;3.70;99.90
71754;DHT22;59593;51.716;7.016;2023-04-03T01:56:49;3.70;99.90
71754;DHT22;59593;51.716;7.016;2023-04-03T01:59:15;3.70;99.90
71754;DHT22;59593;51.716;7.016;2023-04-03T02:01:43;3.70;99.90
71754;DHT22;59593;51.716;7.016;2023-04-03T02:04:11;3.60;99.90
71754;DHT22;59593;51.716;7.016;2023-04-03T02:06:36;3.60;99.90
71754;DHT22;59593;51.716;7.016;2023-04-03T02:09:03;3.60;99.90
71754;DHT22;59593;51.716;7.016;2023-04-03T02:11:28;3.50;99.90
71754;DHT22;59593;51.716;7.016;2023-04-03T02:13:54;3.50;99.90
71754;DHT22;59593;51.716;7.016;2023-04-03T02:16:19;3.50;99.90
71754;DHT22;59593;51.716;7.016;2023-04-03T02:18:45;3.40;99.90
71754;DHT22;59593;51.716;7.016;2023-04-03T02:21:11;3.40;99.90
71754;DHT22;59593;51.716;7.016;2023-04-03T02:23:36;3.30;99.90
71754;DHT22;59593;51.716;7.016;2023-04-03T02:26:10;3.30;99.90
71754;DHT22;59593;51.716;7.016;2023-04-03T02:28:36;3.20;99.90
71754;DHT22;59593;51.716;7.016;2023-04-03T02:31:03;3.20;99.90
71754;DHT22;59593;51.716;7.016;2023-04-03T02:33:30;3.20;99.90
71754;DHT22;59593;51.716;7.016;2023-04-03T02:35:56;3.20;99.90
71754;DHT22;59593;51.716;7.016;2023-04-03T02:38:23;3.30;99.90
71754;DHT22;59593;51.716;7.016;2023-04-03T02:40:49;3.20;99.90
71754;DHT22;59593;51.716;7.016;2023-04-03T02:43:14;3.20;99.90
71754;DHT22;59593;51.716;7.016;2023-04-03T02:45:40;3.10;99.90
71754;DHT22;59593;51.716;7.016;2023-04-03T02:48:06;3.20;99.90
71754;DHT22;59593;51.716;7.016;2023-04-03T02:50:31;3.10;99.90
71754;DHT22;59593;51.716;7.016;2023-04-03T02:52:57;3.10;99.90
71754;DHT22;59593;51.716;7.016;2023-04-03T02:55:23;3.10;99.90
71754;DHT22;59593;51.716;7.016;2023-04-03T02:57:48;3.10;99.90
71754;DHT22;59593;51.716;7.016;2023-04-03T03:00:14;3.10;99.90
71754;DHT22;59593;51.716;7.016;2023-04-03T03:02:40;3.10;99.90
71754;DHT22;59593;51.716;7.016;2023-04-03T03:05:06;3.10;99.90
71754;DHT22;59593;51.716;7.016;2023-04-03T03:07:33;3.00;99.90
71754;DHT22;59593;51.716;7.016;2023-04-03T03:09:58;3.00;99.90
71754;DHT22;59593;51.716;7.016;2023-04-03T03:12:24;3.00;99.90
71754;DHT22;59593;51.716;7.016;2023-04-03T03:14:50;3.00;99.90
71754;DHT22;59593;51.716;7.016;2023-04-03T03:17:16;3.00;99.90
71754;DHT22;59593;51.716;7.016;2023-04-03T03:19:42;3.00;99.90
71754;DHT22;59593;51.716;7.016;2023-04-03T03:22:08;3.00;99.90
71754;DHT22;59593;51.716;7.016;2023-04-03T03:24:33;2.90;99.90
71754;DHT22;59593;51.716;7.016;2023-04-03T03:26:59;2.80;99.90
71754;DHT22;59593;51.716;7.016;2023-04-03T03:29:25;2.80;99.90
71754;DHT22;59593;51.716;7.016;2023-04-03T03:31:51;2.80;99.90
71754;DHT22;59593;51.716;7.016;2023-04-03T03:34:17;2.80;99.90
71754;DHT22;59593;51.716;7.016;2023-04-03T03:36:43;2.70;99.90
71754;DHT22;59593;51.716;7.016;2023-04-03T03:39:08;2.60;99.90
71754;DHT22;59593;51.716;7.016;2023-04-03T03:41:34;2.50;99.90
71754;DHT22;59593;51.716;7.016;2023-04-03T03:43:59;2.50;99.90
71754;DHT22;59593;51.716;7.016;2023-04-03T03:46:25;2.50;99.90
71754;DHT22;59593;51.716;7.016;2023-04-03T03:48:50;2.50;99.90
71754;DHT22;59593;51.716;7.016;2023-04-03T03:51:16;2.50;99.90
71754;DHT22;59593;51.716;7.016;2023-04-03T03:53:45;2.50;99.90
71754;DHT22;59593;51.716;7.016;2023-04-03T03:56:17;2.40;99.90
71754;DHT22;59593;51.716;7.016;2023-04-03T03:58:43;2.40;99.90
71754;DHT22;59593;51.716;7.016;2023-04-03T04:01:08;2.40;99.90
71754;DHT22;59593;51.716;7.016;2023-04-03T04:03:34;2.40;99.90
71754;DHT22;59593;51.716;7.016;2023-04-03T04:06:07;2.40;99.90
71754;DHT22;59593;51.716;7.016;2023-04-03T04:08:35;2.40;99.90
71754;DHT22;59593;51.716;7.016;2023-04-03T04:11:01;2.30;99.90
71754;DHT22;59593;51.716;7.016;2023-04-03T04:13:26;2.30;99.90
71754;DHT22;59593;51.716;7.016;2023-04-03T04:15:52;2.40;99.90
71754;DHT22;59593;51.716;7.016;2023-04-03T04:18:17;2.30;99.90
71754;DHT22;59593;51.716;7.016;2023-04-03T04:20:46;2.30;99.90
71754;DHT22;59593;51.716;7.016;2023-04-03T04:23:11;2.20;99.90
71754;DHT22;59593;51.716;7.016;2023-04-03T04:25:37;2.20;99.90
71754;DHT22;59593;51.716;7.016;2023-04-03T04:28:02;2.20;99.90
71754;DHT22;59593;51.716;7.016;2023-04-03T04:30:28;2.20;99.90
71754;DHT22;59593;51.716;7.016;2023-04-03T04:32:54;2.10;99.90
71754;DHT22;59593;51.716;7.016;2023-04-03T04:35:19;2.10;99.90
71754;DHT22;59593;51.716;7.016;2023-04-03T04:37:45;2.10;99.90
71754;DHT22;59593;51.716;7.016;2023-04-03T04:40:11;2.20;99.90
71754;DHT22;59593;51.716;7.016;2023-04-03T04:42:36;2.20;99.90
71754;DHT22;59593;51.716;7.016;2023-04-03T04:45:02;2.10;99.90
71754;DHT22;59593;51.716;7.016;2023-04-03T04:47:28;2.00;99.90
71754;DHT22;59593;51.716;7.016;2023-04-03T04:49:54;1.90;99.90
71754;DHT22;59593;51.716;7.016;2023-04-03T04:52:20;1.80;99.90
71754;DHT22;59593;51.716;7.016;2023-04-03T04:54:46;1.80;99.90
71754;DHT22;59593;51.716;7.016;2023-04-03T04:57:12;1.80;99.90
71754;DHT22;59593;51.716;7.016;2023-04-03T04:59:37;1.90;99.90
71754;DHT22;59593;51.716;7.016;2023-04-03T05:02:03;2.00;99.90
71754;DHT22;59593;51.716;7.016;2023-04-03T05:04:28;1.90;99.90
71754;DHT22;59593;51.716;7.016;2023-04-03T05:06:54;1.90;99.90
71754;DHT22;59593;51.716;7.016;2023-04-03T05:09:20;1.90;99.90
71754;DHT22;59593;51.716;7.016;2023-04-03T05:11:46;1.90;99.90
71754;DHT22;59593;51.716;7.016;2023-04-03T05:14:12;1.90;99.90
71754;DHT22;59593;51.716;7.016;2023-04-03T05:16:37;1.90;99.90
71754;DHT22;59593;51.716;7.016;2023-04-03T05:19:03;1.80;99.90
71754;DHT22;59593;51.716;7.016;2023-04-03T05:21:29;1.80;99.90
71754;DHT22;59593;51.716;7.016;2023-04-03T05:23:58;1.80;99.90
71754;DHT22;59593;51.716;7.016;2023-04-03T05:26:25;1.90;99.90
71754;DHT22;59593;51.716;7.016;2023-04-03T05:28:51;1.80;99.90
71754;DHT22;59593;51.716;7.016;2023-04-03T05:31:17;1.90;99.90
71754;DHT22;59593;51.716;7.016;2023-04-03T05:33:42;1.90;99.90
71754;DHT22;59593;51.716;7.016;2023-04-03T05:36:08;1.90;99.90
71754;DHT22;59593;51.716;7.016;2023-04-03T05:38:34;1.90;99.90
71754;DHT22;59593;51.716;7.016;2023-04-03T05:41:00;1.90;99.90
71754;DHT22;59593;51.716;7.016;2023-04-03T05:43:26;1.80;99.90
71754;DHT22;59593;51.716;7.016;2023-04-03T05:45:52;1.80;99.90
71754;DHT22;59593;51.716;7.016;2023-04-03T05:48:17;2.00;99.90
71754;DHT22;59593;51.716;7.016;2023-04-03T05:50:43;2.00;99.90
71754;DHT22;59593;51.716;7.016;2023-04-03T05:53:22;2.00;99.90
71754;DHT22;59593;51.716;7.016;2023-04-03T05:55:48;2.00;99.90
71754;DHT22;59593;51.716;7.016;2023-04-03T05:58:14;2.10;99.90
71754;DHT22;59593;51.716;7.016;2023-04-03T06:00:40;2.10;99.90
71754;DHT22;59593;51.716;7.016;2023-04-03T06:03:05;2.10;99.90
71754;DHT22;59593;51.716;7.016;2023-04-03T06:05:31;2.00;99.90
71754;DHT22;59593;51.716;7.016;2023-04-03T06:07:57;2.10;99.90
71754;DHT22;59593;51.716;7.016;2023-04-03T06:10:23;2.10;99.90
71754;DHT22;59593;51.716;7.016;2023-04-03T06:12:49;2.20;99.90
71754;DHT22;59593;51.716;7.016;2023-04-03T06:15:15;2.20;99.90
71754;DHT22;59593;51.716;7.016;2023-04-03T06:17:42;2.30;99.90
71754;DHT22;59593;51.716;7.016;2023-04-03T06:20:08;2.40;99.90
71754;DHT22;59593;51.716;7.016;2023-04-03T06:22:34;2.30;99.90
71754;DHT22;59593;51.716;7.016;2023-04-03T06:25:01;2.30;99.90
71754;DHT22;59593;51.716;7.016;2023-04-03T06:27:27;2.50;99.90
71754;DHT22;59593;51.716;7.016;2023-04-03T06:29:53;2.40;99.90
71754;DHT22;59593;51.716;7.016;2023-04-03T06:32:18;2.40;99.90
71754;DHT22;59593;51.716;7.016;2023-04-03T06:34:44;2.50;99.90
71754;DHT22;59593;51.716;7.016;2023-04-03T06:37:15;2.50;99.90
71754;DHT22;59593;51.716;7.016;2023-04-03T06:39:42;2.50;99.90
71754;DHT22;59593;51.716;7.016;2023-04-03T06:42:07;2.40;99.90
71754;DHT22;59593;51.716;7.016;2023-04-03T06:44:33;2.60;99.90
71754;DHT22;59593;51.716;7.016;2023-04-03T06:47:00;2.60;99.90
71754;DHT22;59593;51.716;7.016;2023-04-03T06:49:26;2.50;99.90
71754;DHT22;59593;51.716;7.016;2023-04-03T06:51:52;2.50;99.90
71754;DHT22;59593;51.716;7.016;2023-04-03T06:54:17;2.60;99.90
71754;DHT22;59593;51.716;7.016;2023-04-03T06:56:43;2.60;99.90
71754;DHT22;59593;51.716;7.016;2023-04-03T06:59:10;2.70;99.90
71754;DHT22;59593;51.716;7.016;2023-04-03T07:01:38;2.80;99.90
71754;DHT22;59593;51.716;7.016;2023-04-03T07:04:03;2.80;99.90
71754;DHT22;59593;51.716;7.016;2023-04-03T07:06:29;2.80;99.90
71754;DHT22;59593;51.716;7.016;2023-04-03T07:08:56;2.70;99.90
71754;DHT22;59593;51.716;7.016;2023-04-03T07:11:22;2.80;99.90
71754;DHT22;59593;51.716;7.016;2023-04-03T07:13:48;2.90;99.90
71754;DHT22;59593;51.716;7.016;2023-04-03T07:16:13;3.00;99.90
71754;DHT22;59593;51.716;7.016;2023-04-03T07:18:39;3.20;99.90
71754;DHT22;59593;51.716;7.016;2023-04-03T07:21:05;3.20;99.90
71754;DHT22;59593;51.716;7.016;2023-04-03T07:23:31;3.30;99.90
71754;DHT22;59593;51.716;7.016;2023-04-03T07:25:57;3.20;99.90
71754;DHT22;59593;51.716;7.016;2023-04-03T07:28:22;3.30;99.90
71754;DHT22;59593;51.716;7.016;2023-04-03T07:30:53;3.40;99.90
71754;DHT22;59593;51.716;7.016;2023-04-03T07:33:21;3.40;99.90
71754;DHT22;59593;51.716;7.016;2023-04-03T07:35:47;3.50;99.90
71754;DHT22;59593;51.716;7.016;2023-04-03T07:38:14;3.50;99.90
71754;DHT22;59593;51.716;7.016;2023-04-03T07:40:39;3.50;99.90
71754;DHT22;59593;51.716;7.016;2023-04-03T07:43:06;3.60;99.90
71754;DHT22;59593;51.716;7.016;2023-04-03T07:45:34;3.60;99.90
71754;DHT22;59593;51.716;7.016;2023-04-03T07:48:00;3.70;99.90
71754;DHT22;59593;51.716;7.016;2023-04-03T07:50:26;3.70;99.90
71754;DHT22;59593;51.716;7.016;2023-04-03T07:52:52;3.90;99.90
71754;DHT22;59593;51.716;7.016;2023-04-03T07:55:20;3.90;99.90
71754;DHT22;59593;51.716;7.016;2023-04-03T07:57:45;3.90;99.90
71754;DHT22;59593;51.716;7.016;2023-04-03T08:00:12;4.00;99.90
71754;DHT22;59593;51.716;7.016;2023-04-03T08:02:38;4.20;99.90
71754;DHT22;59593;51.716;7.016;2023-04-03T08:05:03;4.20;99.90
71754;DHT22;59593;51.716;7.016;2023-04-03T08:07:29;4.30;99.90
71754;DHT22;59593;51.716;7.016;2023-04-03T08:09:55;4.40;99.90
71754;DHT22;59593;51.716;7.016;2023-04-03T08:12:21;4.30;99.90
71754;DHT22;59593;51.716;7.016;2023-04-03T08:14:46;4.20;99.90
71754;DHT22;59593;51.716;7.016;2023-04-03T08:17:12;4.30;99.90
71754;DHT22;59593;51.716;7.016;2023-04-03T08:19:38;4.40;99.90
71754;DHT22;59593;51.716;7.016;2023-04-03T08:22:05;4.40;99.90
71754;DHT22;59593;51.716;7.016;2023-04-03T08:24:32;4.60;99.90
71754;DHT22;59593;51.716;7.016;2023-04-03T08:26:57;4.70;99.90
71754;DHT22;59593;51.716;7.016;2023-04-03T08:29:24;4.60;99.90
71754;DHT22;59593;51.716;7.016;2023-04-03T08:31:50;4.70;99.90
71754;DHT22;59593;51.716;7.016;2023-04-03T08:34:16;4.70;99.90
71754;DHT22;59593;51.716;7.016;2023-04-03T08:36:42;4.70;99.90
71754;DHT22;59593;51.716;7.016;2023-04-03T08:39:08;4.90;99.90
71754;DHT22;59593;51.716;7.016;2023-04-03T08:41:42;5.00;99.90
71754;DHT22;59593;51.716;7.016;2023-04-03T08:44:38;5.10;99.90
71754;DHT22;59593;51.716;7.016;2023-04-03T08:47:23;5.40;99.90
71754;DHT22;59593;51.716;7.016;2023-04-03T08:49:54;5.30;99.90
71754;DHT22;59593;51.716;7.016;2023-04-03T08:52:41;5.40;99.90
71754;DHT22;59593;51.716;7.016;2023-04-03T08:57:48;5.40;99.90
71754;DHT22;59593;51.716;7.016;2023-04-03T09:00:17;5.50;99.90
71754;DHT22;59593;51.716;7.016;2023-04-03T09:02:46;5.40;99.90
71754;DHT22;59593;51.716;7.016;2023-04-03T09:05:18;5.40;99.90
71754;DHT22;59593;51.716;7.016;2023-04-03T09:07:52;5.30;99.90
71754;DHT22;59593;51.716;7.016;2023-04-03T09:10:26;5.50;99.90
71754;DHT22;59593;51.716;7.016;2023-04-03T09:13:01;5.70;99.90
71754;DHT22;59593;51.716;7.016;2023-04-03T09:15:28;5.70;99.90
71754;DHT22;59593;51.716;7.016;2023-04-03T09:18:05;5.80;99.90
71754;DHT22;59593;51.716;7.016;2023-04-03T09:23:54;5.90;99.90
71754;DHT22;59593;51.716;7.016;2023-04-03T09:26:51;5.80;99.90
71754;DHT22;59593;51.716;7.016;2023-04-03T09:29:21;5.90;99.90
71754;DHT22;59593;51.716;7.016;2023-04-03T09:32:00;6.00;99.90
71754;DHT22;59593;51.716;7.016;2023-04-03T09:34:46;6.10;99.90
71754;DHT22;59593;51.716;7.016;2023-04-03T09:37:35;6.20;99.90
71754;DHT22;59593;51.716;7.016;2023-04-03T09:40:01;6.30;99.90
71754;DHT22;59593;51.716;7.016;2023-04-03T09:42:30;6.30;99.90
71754;DHT22;59593;51.716;7.016;2023-04-03T09:44:58;6.30;99.90
71754;DHT22;59593;51.716;7.016;2023-04-03T09:49:49;6.40;99.90
71754;DHT22;59593;51.716;7.016;2023-04-03T09:52:24;6.50;99.90
71754;DHT22;59593;51.716;7.016;2023-04-03T09:54:50;6.60;99.90
71754;DHT22;59593;51.716;7.016;2023-04-03T09:57:16;6.60;99.90
71754;DHT22;59593;51.716;7.016;2023-04-03T09:59:46;6.60;99.90
71754;DHT22;59593;51.716;7.016;2023-04-03T10:02:43;7.00;99.90
71754;DHT22;59593;51.716;7.016;2023-04-03T10:05:37;7.20;99.90
71754;DHT22;59593;51.716;7.016;2023-04-03T10:10:37;7.20;99.90
71754;DHT22;59593;51.716;7.016;2023-04-03T10:13:05;7.30;99.90
71754;DHT22;59593;51.716;7.016;2023-04-03T10:15:39;7.10;99.90
71754;DHT22;59593;51.716;7.016;2023-04-03T10:21:17;7.80;99.90
71754;DHT22;59593;51.716;7.016;2023-04-03T10:26:47;8.00;99.90
71754;DHT22;59593;51.716;7.016;2023-04-03T10:29:37;8.20;99.90
71754;DHT22;59593;51.716;7.016;2023-04-03T10:34:46;7.80;99.90
71754;DHT22;59593;51.716;7.016;2023-04-03T10:43:02;7.80;99.90
71754;DHT22;59593;51.716;7.016;2023-04-03T10:45:46;7.90;99.90
71754;DHT22;59593;51.716;7.016;2023-04-03T10:48:17;8.40;99.90
71754;DHT22;59593;51.716;7.016;2023-04-03T10:51:22;8.60;99.90
71754;DHT22;59593;51.716;7.016;2023-04-03T10:53:56;8.70;99.90
71754;DHT22;59593;51.716;7.016;2023-04-03T10:56:38;9.00;99.90
71754;DHT22;59593;51.716;7.016;2023-04-03T11:04:49;9.90;99.90
71754;DHT22;59593;51.716;7.016;2023-04-03T11:07:22;10.00;99.90
71754;DHT22;59593;51.716;7.016;2023-04-03T11:09:58;10.30;98.80
71754;DHT22;59593;51.716;7.016;2023-04-03T11:12:52;10.20;99.80
71754;DHT22;59593;51.716;7.016;2023-04-03T11:15:29;10.40;96.40
71754;DHT22;59593;51.716;7.016;2023-04-03T11:18:24;10.50;96.10
71754;DHT22;59593;51.716;7.016;2023-04-03T11:21:11;9.90;95.90
71754;DHT22;59593;51.716;7.016;2023-04-03T11:23:40;10.20;94.30
71754;DHT22;59593;51.716;7.016;2023-04-03T11:26:18;10.50;97.90
71754;DHT22;59593;51.716;7.016;2023-04-03T11:28:44;10.50;92.80
71754;DHT22;59593;51.716;7.016;2023-04-03T11:33:58;11.70;93.20
71754;DHT22;59593;51.716;7.016;2023-04-03T11:36:30;11.40;89.20
71754;DHT22;59593;51.716;7.016;2023-04-03T11:39:05;11.70;88.20
71754;DHT22;59593;51.716;7.016;2023-04-03T11:41:33;10.90;88.50
71754;DHT22;59593;51.716;7.016;2023-04-03T11:44:05;11.50;86.20
71754;DHT22;59593;51.716;7.016;2023-04-03T11:46:50;11.60;82.80
71754;DHT22;59593;51.716;7.016;2023-04-03T12:05:53;11.90;74.80
71754;DHT22;59593;51.716;7.016;2023-04-03T12:13:36;12.40;75.50
71754;DHT22;59593;51.716;7.016;2023-04-03T12:16:03;13.00;77.80
71754;DHT22;59593;51.716;7.016;2023-04-03T12:21:11;12.30;76.00
71754;DHT22;59593;51.716;7.016;2023-04-03T12:24:01;11.70;85.20
71754;DHT22;59593;51.716;7.016;2023-04-03T12:29:02;12.10;79.40
71754;DHT22;59593;51.716;7.016;2023-04-03T12:31:55;13.30;82.60
71754;DHT22;59593;51.716;7.016;2023-04-03T12:40:34;12.90;76.30
71754;DHT22;59593;51.716;7.016;2023-04-03T12:45:59;12.70;74.00
71754;DHT22;59593;51.716;7.016;2023-04-03T12:48:30;12.60;76.30
71754;DHT22;59593;51.716;7.016;2023-04-03T12:50:57;13.10;77.20
71754;DHT22;59593;51.716;7.016;2023-04-03T12:53:27;13.60;72.50
71754;DHT22;59593;51.716;7.016;2023-04-03T12:55:56;12.90;74.50
71754;DHT22;59593;51.716;7.016;2023-04-03T12:58:27;11.70;76.10
71754;DHT22;59593;51.716;7.016;2023-04-03T13:01:04;12.50;80.00
71754;DHT22;59593;51.716;7.016;2023-04-03T13:03:42;12.30;78.40
71754;DHT22;59593;51.716;7.016;2023-04-03T13:06:21;11.90;77.80
71754;DHT22;59593;51.716;7.016;2023-04-03T13:09:14;11.00;83.20
71754;DHT22;59593;51.716;7.016;2023-04-03T13:11:44;11.40;85.40
71754;DHT22;59593;51.716;7.016;2023-04-03T13:14:20;10.80;84.60
71754;DHT22;59593;51.716;7.016;2023-04-03T13:17:03;10.40;89.40
71754;DHT22;59593;51.716;7.016;2023-04-03T13:19:29;10.00;88.80
71754;DHT22;59593;51.716;7.016;2023-04-03T13:22:07;9.90;90.80
71754;DHT22;59593;51.716;7.016;2023-04-03T13:24:36;10.50;94.10
71754;DHT22;59593;51.716;7.016;2023-04-03T13:27:04;10.40;96.70
71754;DHT22;59593;51.716;7.016;2023-04-03T13:29:33;10.50;94.00
71754;DHT22;59593;51.716;7.016;2023-04-03T13:32:00;10.50;92.40
71754;DHT22;59593;51.716;7.016;2023-04-03T13:34:29;10.60;94.40
71754;DHT22;59593;51.716;7.016;2023-04-03T13:37:01;10.90;90.20
71754;DHT22;59593;51.716;7.016;2023-04-03T13:39:30;11.70;95.00
71754;DHT22;59593;51.716;7.016;2023-04-03T13:42:01;11.60;92.20
71754;DHT22;59593;51.716;7.016;2023-04-03T13:44:35;11.50;91.80
71754;DHT22;59593;51.716;7.016;2023-04-03T13:49:42;11.40;93.60
71754;DHT22;59593;51.716;7.016;2023-04-03T13:52:39;11.60;90.90
71754;DHT22;59593;51.716;7.016;2023-04-03T13:55:24;10.80;86.90
71754;DHT22;59593;51.716;7.016;2023-04-03T13:58:16;10.20;89.00
71754;DHT22;59593;51.716;7.016;2023-04-03T14:00:49;10.50;91.10
71754;DHT22;59593;51.716;7.016;2023-04-03T14:05:50;10.80;91.20
71754;DHT22;59593;51.716;7.016;2023-04-03T14:08:17;10.80;90.10
71754;DHT22;59593;51.716;7.016;2023-04-03T14:10:43;10.80;91.10
71754;DHT22;59593;51.716;7.016;2023-04-03T14:13:13;11.00;92.50
71754;DHT22;59593;51.716;7.016;2023-04-03T14:15:39;10.90;92.50
71754;DHT22;59593;51.716;7.016;2023-04-03T14:18:05;11.00;91.80
71754;DHT22;59593;51.716;7.016;2023-04-03T14:20:31;10.80;90.90
71754;DHT22;59593;51.716;7.016;2023-04-03T14:22:57;11.10;92.30
71754;DHT22;59593;51.716;7.016;2023-04-03T14:25:23;11.20;92.10
71754;DHT22;59593;51.716;7.016;2023-04-03T14:27:52;11.10;90.80
71754;DHT22;59593;51.716;7.016;2023-04-03T14:30:28;11.30;89.90
71754;DHT22;59593;51.716;7.016;2023-04-03T14:32:55;11.00;93.00
71754;DHT22;59593;51.716;7.016;2023-04-03T14:35:21;11.10;90.40
71754;DHT22;59593;51.716;7.016;2023-04-03T14:37:48;11.40;87.70
71754;DHT22;59593;51.716;7.016;2023-04-03T14:40:18;10.70;91.60
71754;DHT22;59593;51.716;7.016;2023-04-03T14:42:44;10.90;92.20
71754;DHT22;59593;51.716;7.016;2023-04-03T14:45:12;10.80;94.50
71754;DHT22;59593;51.716;7.016;2023-04-03T14:47:49;11.00;94.30
71754;DHT22;59593;51.716;7.016;2023-04-03T14:50:18;11.10;91.90
71754;DHT22;59593;51.716;7.016;2023-04-03T14:52:44;11.10;92.90
71754;DHT22;59593;51.716;7.016;2023-04-03T14:55:12;10.90;93.80
71754;DHT22;59593;51.716;7.016;2023-04-03T14:57:38;10.40;92.50
71754;DHT22;59593;51.716;7.016;2023-04-03T15:00:06;10.70;94.90
71754;DHT22;59593;51.716;7.016;2023-04-03T15:02:37;10.70;92.60
71754;DHT22;59593;51.716;7.016;2023-04-03T15:05:08;10.90;94.40
71754;DHT22;59593;51.716;7.016;2023-04-03T15:07:40;10.60;91.00
71754;DHT22;59593;51.716;7.016;2023-04-03T15:10:19;10.80;92.20
71754;DHT22;59593;51.716;7.016;2023-04-03T15:12:47;11.00;92.10
71754;DHT22;59593;51.716;7.016;2023-04-03T15:15:16;11.30;93.30
71754;DHT22;59593;51.716;7.016;2023-04-03T15:17:43;11.50;90.30
71754;DHT22;59593;51.716;7.016;2023-04-03T15:20:14;11.00;90.90
71754;DHT22;59593;51.716;7.016;2023-04-03T15:22:40;11.20;90.40
71754;DHT22;59593;51.716;7.016;2023-04-03T15:25:06;11.30;90.80
71754;DHT22;59593;51.716;7.016;2023-04-03T15:27:32;11.40;92.10
71754;DHT22;59593;51.716;7.016;2023-04-03T15:29:58;11.50;90.50
71754;DHT22;59593;51.716;7.016;2023-04-03T15:32:24;11.40;90.80
71754;DHT22;59593;51.716;7.016;2023-04-03T15:34:49;10.80;90.50
71754;DHT22;59593;51.716;7.016;2023-04-03T15:37:15;10.50;92.90
71754;DHT22;59593;51.716;7.016;2023-04-03T15:39:41;10.70;94.80
71754;DHT22;59593;51.716;7.016;2023-04-03T15:42:06;10.80;96.90
71754;DHT22;59593;51.716;7.016;2023-04-03T15:44:33;10.60;94.30
71754;DHT22;59593;51.716;7.016;2023-04-03T15:46:59;10.70;94.40
71754;DHT22;59593;51.716;7.016;2023-04-03T15:49:26;11.00;93.30
71754;DHT22;59593;51.716;7.016;2023-04-03T15:51:52;11.20;95.20
71754;DHT22;59593;51.716;7.016;2023-04-03T15:54:18;11.00;93.50
71754;DHT22;59593;51.716;7.016;2023-04-03T15:56:44;11.10;95.20
71754;DHT22;59593;51.716;7.016;2023-04-03T15:59:09;10.80;94.30
71754;DHT22;59593;51.716;7.016;2023-04-03T16:01:36;10.60;93.70
71754;DHT22;59593;51.716;7.016;2023-04-03T16:04:02;10.70;94.60
71754;DHT22;59593;51.716;7.016;2023-04-03T16:06:27;11.10;94.30
71754;DHT22;59593;51.716;7.016;2023-04-03T16:08:55;11.10;92.70
71754;DHT22;59593;51.716;7.016;2023-04-03T16:11:24;11.20;99.90
71754;DHT22;59593;51.716;7.016;2023-04-03T16:13:50;11.20;94.80
71754;DHT22;59593;51.716;7.016;2023-04-03T16:16:15;11.30;93.90
71754;DHT22;59593;51.716;7.016;2023-04-03T16:18:41;11.00;93.60
71754;DHT22;59593;51.716;7.016;2023-04-03T16:21:07;11.00;93.60
71754;DHT22;59593;51.716;7.016;2023-04-03T16:23:34;10.70;94.90
71754;DHT22;59593;51.716;7.016;2023-04-03T16:26:00;11.20;96.70
71754;DHT22;59593;51.716;7.016;2023-04-03T16:28:25;10.90;94.90
71754;DHT22;59593;51.716;7.016;2023-04-03T16:30:51;10.90;94.90
71754;DHT22;59593;51.716;7.016;2023-04-03T16:33:17;10.90;92.10
71754;DHT22;59593;51.716;7.016;2023-04-03T16:35:42;10.80;93.60
71754;DHT22;59593;51.716;7.016;2023-04-03T16:41:42;10.50;94.90
71754;DHT22;59593;51.716;7.016;2023-04-03T16:51:39;11.00;93.40
71754;DHT22;59593;51.716;7.016;2023-04-03T16:54:32;10.90;97.40
71754;DHT22;59593;51.716;7.016;2023-04-03T16:57:00;10.70;97.40
71754;DHT22;59593;51.716;7.016;2023-04-03T16:59:26;10.50;95.10
71754;DHT22;59593;51.716;7.016;2023-04-03T17:01:51;10.20;94.10
71754;DHT22;59593;51.716;7.016;2023-04-03T17:04:17;10.00;95.90
71754;DHT22;59593;51.716;7.016;2023-04-03T17:06:43;9.70;96.00
71754;DHT22;59593;51.716;7.016;2023-04-03T17:09:08;9.80;98.60
71754;DHT22;59593;51.716;7.016;2023-04-03T17:11:35;9.60;99.90
71754;DHT22;59593;51.716;7.016;2023-04-03T17:14:00;9.60;98.40
71754;DHT22;59593;51.716;7.016;2023-04-03T17:16:27;9.30;99.90
71754;DHT22;59593;51.716;7.016;2023-04-03T17:18:53;9.00;99.90
71754;DHT22;59593;51.716;7.016;2023-04-03T17:21:20;8.80;99.90
71754;DHT22;59593;51.716;7.016;2023-04-03T17:23:57;8.80;99.90
71754;DHT22;59593;51.716;7.016;2023-04-03T17:26:25;8.90;99.90